createdAt,value
2022-12-08T00:00:12.434Z,99116.56
2022-12-08T00:05:54.715Z,99119.23
2022-12-08T00:10:58.651Z,99120.83
2022-12-08T00:16:02.027Z,99123.16
2022-12-08T00:21:05.448Z,99133.41
2022-12-08T00:26:09.215Z,99131.30
2022-12-08T00:31:12.714Z,99129.56
2022-12-08T00:36:16.528Z,99132.73
2022-12-08T00:41:41.681Z,99135.09
2022-12-08T00:46:45.535Z,99139.36
2022-12-08T00:51:49.099Z,99142.90
2022-12-08T00:56:52.971Z,99143.84
2022-12-08T01:01:56.274Z,99147.35
2022-12-08T01:06:59.713Z,99149.20
2022-12-08T01:12:02.939Z,99156.73
2022-12-08T01:17:06.331Z,99160.80
2022-12-08T01:22:09.434Z,99160.48
2022-12-08T01:27:15.240Z,99159.30
2022-12-08T01:32:18.578Z,99163.52
2022-12-08T01:37:22.026Z,99166.81
2022-12-08T01:42:26.058Z,99169.34
2022-12-08T01:47:41.710Z,99172.48
2022-12-08T01:52:53.854Z,99178.52
2022-12-08T01:58:03.232Z,99178.05
2022-12-08T02:03:21.716Z,99175.17
2022-12-08T02:08:26.252Z,99175.16
2022-12-08T02:13:29.653Z,99173.83
2022-12-08T02:19:29.729Z,99179.23
2022-12-08T02:24:46.222Z,99176.30
2022-12-08T02:30:11.474Z,99179.77
2022-12-08T02:35:44.420Z,99184.04
2022-12-08T02:41:26.399Z,99179.94
2022-12-08T02:46:41.266Z,99182.52
2022-12-08T02:51:44.781Z,99178.13
2022-12-08T02:57:09.703Z,99186.30
2022-12-08T03:02:22.220Z,99192.33
2022-12-08T03:07:41.422Z,99196.27
2022-12-08T03:12:50.451Z,99194.97
2022-12-08T03:17:58.143Z,99201.04
2022-12-08T03:23:06.365Z,99200.10
2022-12-08T03:28:10.340Z,99195.96
2022-12-08T03:33:24.321Z,99195.17
2022-12-08T03:38:38.881Z,99190.05
2022-12-08T03:43:42.738Z,99187.67
2022-12-08T03:48:46.241Z,99194.48
2022-12-08T03:53:50.227Z,99194.02
2022-12-08T03:58:54.725Z,99197.23
2022-12-08T04:03:57.952Z,99201.78
2022-12-08T04:09:01.263Z,99200.86
2022-12-08T04:14:04.568Z,99201.28
2022-12-08T04:19:07.768Z,99202.36
2022-12-08T04:24:11.205Z,99196.78
2022-12-08T04:29:14.367Z,99202.00
2022-12-08T04:34:17.506Z,99204.15
2022-12-08T04:39:20.669Z,99214.65
2022-12-08T04:44:24.118Z,99215.21
2022-12-08T04:49:27.609Z,99212.41
2022-12-08T04:54:31.180Z,99218.48
2022-12-08T04:59:34.407Z,99219.64
2022-12-08T05:04:37.723Z,99218.16
2022-12-08T05:09:41.247Z,99210.66
2022-12-08T05:14:44.760Z,99201.25
2022-12-08T05:19:47.983Z,99198.11
2022-12-08T05:24:51.192Z,99202.23
2022-12-08T05:29:55.476Z,99207.38
2022-12-08T05:34:58.679Z,99210.58
2022-12-08T05:40:02.463Z,99210.72
2022-12-08T05:45:06.246Z,99213.38
2022-12-08T05:50:09.513Z,99217.00
2022-12-08T05:55:12.745Z,99216.41
2022-12-08T06:00:16.592Z,99230.09
2022-12-08T06:05:20.097Z,99235.89
2022-12-08T06:10:23.362Z,99238.16
2022-12-08T06:15:27.154Z,99240.68
2022-12-08T06:20:30.518Z,99236.52
2022-12-08T06:25:33.882Z,99244.71
2022-12-08T06:30:39.084Z,99249.04
2022-12-08T06:35:42.503Z,99248.65
2022-12-08T06:40:53.672Z,99249.48
2022-12-08T06:46:01.912Z,99253.52
2022-12-08T06:51:10.502Z,99249.86
2022-12-08T06:56:16.062Z,99258.73
2022-12-08T07:01:19.567Z,99259.39
2022-12-08T07:06:25.195Z,99257.34
2022-12-08T07:11:29.012Z,99252.98
2022-12-08T07:16:32.808Z,99250.73
2022-12-08T07:21:36.207Z,99251.00
2022-12-08T07:26:41.213Z,99247.15
2022-12-08T07:31:45.457Z,99243.55
2022-12-08T07:36:49.217Z,99243.18
2022-12-08T07:41:52.644Z,99251.38
2022-12-08T07:46:55.910Z,99250.85
2022-12-08T07:51:59.265Z,99251.16
2022-12-08T07:57:03.927Z,99250.48
2022-12-08T08:02:24.384Z,99249.48
2022-12-08T08:07:31.656Z,99248.56
2022-12-08T08:12:35.471Z,99246.88
2022-12-08T08:17:39.046Z,99250.21
2022-12-08T08:22:42.226Z,99253.82
2022-12-08T08:27:46.974Z,99253.56
2022-12-08T08:32:50.803Z,99255.28
2022-12-08T08:37:55.321Z,99249.56
2022-12-08T08:43:01.621Z,99250.13
2022-12-08T08:48:05.395Z,99253.03
2022-12-08T08:53:08.613Z,99253.04
2022-12-08T08:58:12.007Z,99252.84
2022-12-08T09:03:16.039Z,99251.04
2022-12-08T09:08:20.288Z,99246.75
2022-12-08T09:13:24.126Z,99237.55
2022-12-08T09:18:27.212Z,99237.15
2022-12-08T09:23:35.225Z,99235.31
2022-12-08T09:28:39.206Z,99232.56
2022-12-08T09:33:42.847Z,99223.47
2022-12-08T09:38:47.122Z,99218.34
2022-12-08T09:44:21.722Z,99215.32
2022-12-08T09:49:39.077Z,99204.51
2022-12-08T09:54:42.170Z,99200.02
2022-12-08T09:59:54.004Z,99194.67
2022-12-08T10:04:59.633Z,99196.67
2022-12-08T10:10:08.108Z,99199.92
2022-12-08T10:15:36.603Z,99194.64
2022-12-08T10:20:45.811Z,99191.16
2022-12-08T10:25:53.254Z,99184.34
2022-12-08T10:30:56.826Z,99176.38
2022-12-08T10:36:05.129Z,99168.28
2022-12-08T10:41:11.604Z,99167.27
2022-12-08T10:46:26.246Z,99163.32
2022-12-08T10:51:40.944Z,99157.17
2022-12-08T10:56:55.503Z,99154.34
2022-12-08T11:02:01.382Z,99154.83
2022-12-08T11:07:07.004Z,99150.20
2022-12-08T11:12:15.679Z,99147.64
2022-12-08T11:17:22.227Z,99141.97
2022-12-08T11:22:29.783Z,99148.61
2022-12-08T11:27:34.737Z,99150.35
2022-12-08T11:32:41.849Z,99150.02
2022-12-08T11:37:45.192Z,99144.05
2022-12-08T11:43:20.369Z,99132.20
2022-12-08T11:48:32.590Z,99125.06
2022-12-08T11:54:00.745Z,99127.26
2022-12-08T11:59:34.702Z,99123.65
2022-12-08T12:05:01.619Z,99120.58
2022-12-08T12:10:14.014Z,99114.67
2022-12-08T12:15:31.547Z,99108.64
2022-12-08T12:20:42.851Z,99099.69
2022-12-08T12:26:09.624Z,99096.20
2022-12-08T12:31:18.179Z,99095.13
2022-12-08T12:36:22.640Z,99093.38
2022-12-08T12:41:30.938Z,99087.95
2022-12-08T12:46:37.546Z,99082.23
2022-12-08T12:51:54.366Z,99076.98
2022-12-08T12:57:21.275Z,99077.71
2022-12-08T13:02:36.143Z,99076.91
2022-12-08T13:07:49.784Z,99067.91
2022-12-08T13:13:11.513Z,99072.73
2022-12-08T13:18:26.886Z,99072.23
2022-12-08T13:23:36.883Z,99074.52
2022-12-08T13:28:59.064Z,99078.94
2022-12-08T13:34:28.329Z,99075.45
2022-12-08T13:39:54.138Z,99075.67
2022-12-08T13:46:18.285Z,99080.06
2022-12-08T13:57:02.680Z,99074.10
2022-12-08T14:02:05.119Z,99082.81
2022-12-08T14:07:09.909Z,99083.30
2022-12-08T14:12:28.091Z,99084.95
2022-12-08T14:17:36.498Z,99084.23
2022-12-08T14:22:41.507Z,99084.83
2022-12-08T14:27:46.551Z,99083.91
2022-12-08T14:32:52.674Z,99086.90
2022-12-08T14:38:06.201Z,99081.01
2022-12-08T14:43:10.183Z,99083.84
2022-12-08T14:48:38.989Z,99086.63
2022-12-08T14:53:47.444Z,99085.85
2022-12-08T14:59:09.121Z,99089.09
2022-12-08T15:04:15.110Z,99085.23
2022-12-08T15:09:36.130Z,99089.34
2022-12-08T15:15:09.303Z,99093.23
2022-12-08T15:20:35.107Z,99096.21
2022-12-08T15:25:39.320Z,99096.43
2022-12-08T15:30:42.784Z,99096.85
2022-12-08T15:35:47.472Z,99096.48
2022-12-08T15:40:52.325Z,99094.79
2022-12-08T15:45:59.419Z,99093.56
2022-12-08T15:51:04.843Z,99093.48
2022-12-08T16:01:32.805Z,99090.58
2022-12-08T16:12:19.604Z,99084.48
2022-12-08T16:17:23.794Z,99084.21
2022-12-08T16:22:54.159Z,99086.55
2022-12-08T16:28:02.948Z,99083.61
2022-12-08T16:33:11.785Z,99087.69
2022-12-08T16:38:17.012Z,99088.19
2022-12-08T16:43:20.910Z,99087.97
2022-12-08T16:48:24.480Z,99088.98
2022-12-08T16:53:28.958Z,99094.20
2022-12-08T16:58:32.285Z,99089.52
2022-12-08T17:03:35.734Z,99088.91
2022-12-08T17:08:40.996Z,99089.69
2022-12-08T17:13:45.233Z,99084.84
2022-12-08T17:18:48.894Z,99082.35
2022-12-08T17:23:52.275Z,99088.89
2022-12-08T17:29:02.781Z,99087.83
2022-12-08T17:34:11.893Z,99088.28
2022-12-08T17:39:18.837Z,99093.70
2022-12-08T17:44:23.325Z,99094.41
2022-12-08T17:49:30.051Z,99094.63
2022-12-08T17:54:34.282Z,99094.12
2022-12-08T17:59:40.686Z,99094.05
2022-12-08T18:04:47.386Z,99094.36
2022-12-08T18:09:55.142Z,99088.48
2022-12-08T18:15:01.154Z,99084.39
2022-12-08T18:20:10.217Z,99084.20
2022-12-08T18:25:15.636Z,99081.28
2022-12-08T18:30:22.079Z,99076.71
2022-12-08T18:35:32.970Z,99076.59
2022-12-08T18:40:37.560Z,99076.20
2022-12-08T18:45:44.458Z,99078.59
2022-12-08T18:50:52.015Z,99078.73
2022-12-08T18:55:56.841Z,99076.35
2022-12-08T19:01:03.547Z,99081.98
2022-12-08T19:06:10.060Z,99083.33
2022-12-08T19:11:24.095Z,99081.98
2022-12-08T19:16:29.684Z,99083.02
2022-12-08T19:21:34.882Z,99082.39
2022-12-08T19:26:42.760Z,99082.86
2022-12-08T19:31:46.654Z,99082.77
2022-12-08T19:36:50.910Z,99083.98
2022-12-08T19:42:13.798Z,99080.31
2022-12-08T19:47:17.395Z,99076.18
2022-12-08T19:52:21.737Z,99076.08
2022-12-08T19:57:27.458Z,99073.75
2022-12-08T20:02:32.078Z,99072.95
2022-12-08T20:07:36.723Z,99077.91
2022-12-08T20:12:42.805Z,99078.73
2022-12-08T20:17:50.838Z,99083.39
2022-12-08T20:22:58.460Z,99088.92
2022-12-08T20:28:03.570Z,99087.70
2022-12-08T20:33:09.548Z,99091.17
2022-12-08T20:38:17.312Z,99088.16
2022-12-08T20:43:20.843Z,99089.61
2022-12-08T20:48:25.377Z,99096.81
2022-12-08T20:53:29.290Z,99098.76
2022-12-08T20:58:33.065Z,99097.23
2022-12-08T21:03:37.185Z,99100.99
2022-12-08T21:08:41.841Z,99100.30
2022-12-08T21:13:47.067Z,99105.62
2022-12-08T21:18:51.104Z,99103.19
2022-12-08T21:23:54.208Z,99102.50
2022-12-08T21:28:59.389Z,99103.60
2022-12-08T21:34:04.146Z,99100.86
2022-12-08T21:39:13.361Z,99099.91
2022-12-08T21:44:20.574Z,99098.55
2022-12-08T21:49:23.912Z,99099.14
2022-12-08T21:54:27.750Z,99098.74
2022-12-08T21:59:31.843Z,99090.52
2022-12-08T22:04:38.887Z,99084.95
2022-12-08T22:09:42.739Z,99083.99
2022-12-08T22:14:46.318Z,99076.27
2022-12-08T22:19:50.022Z,99078.92
2022-12-08T22:24:56.893Z,99077.61
2022-12-08T22:30:00.338Z,99081.36
2022-12-08T22:35:04.226Z,99081.19
2022-12-08T22:40:08.795Z,99081.95
2022-12-08T22:45:12.675Z,99083.98
2022-12-08T22:50:16.337Z,99085.72
2022-12-08T22:55:19.992Z,99087.38
2022-12-08T23:00:23.763Z,99084.55
2022-12-08T23:05:28.466Z,99086.70
2022-12-08T23:10:34.011Z,99084.20
2022-12-08T23:15:39.234Z,99081.59
2022-12-08T23:20:43.680Z,99079.75
2022-12-08T23:25:48.910Z,99080.31
2022-12-08T23:30:52.897Z,99073.10
2022-12-08T23:35:58.393Z,99076.42
2022-12-08T23:41:04.797Z,99072.35
2022-12-08T23:46:09.411Z,99076.38
2022-12-08T23:51:15.491Z,99075.64
2022-12-08T23:56:19.421Z,99071.28
